Time;durP1;ratioP1;P1;durP2;ratioP2;P2;SDS_P1;SDS_P2;PMS_P1;PMS_P2;Temp;Humidity;BMP_temperature;BMP_pressure;BME280_temperature;BME280_humidity;BME280_pressure;Samples;Min_cycle;Max_cycle;Signal;HPM_P1;HPM_P2
2022/06/05 00:00:06;;;;;;;;;;;21.40;99.90;;;;;;5014939;28;19925;-65
2022/06/05 00:02:41;;;;;;;;;;;21.30;99.90;;;;;;5006031;28;19930;-65
2022/06/05 00:05:12;;;;;;;;;;;21.30;99.90;;;;;;5026036;28;19979;-65
2022/06/05 00:07:43;;;;;;;;;;;21.30;99.90;;;;;;5024318;28;19925;-66
2022/06/05 00:10:14;;;;;;;;;;;21.20;99.90;;;;;;5002386;28;20328;-65
2022/06/05 00:12:44;;;;;;;;;;;21.20;99.90;;;;;;5007597;28;20386;-66
2022/06/05 00:15:11;;;;;;;;;;;21.10;99.90;;;;;;5023059;28;19949;-65
2022/06/05 00:17:39;;;;;;;;;;;21.10;99.90;;;;;;5022626;28;19926;-65
2022/06/05 00:20:07;;;;;;;;;;;21.10;99.90;;;;;;5024655;28;19926;-65
2022/06/05 00:22:34;;;;;;;;;;;21.00;99.90;;;;;;5004242;28;19988;-65
2022/06/05 00:25:01;;;;;;;;;;;21.00;99.90;;;;;;5016544;28;19984;-65
2022/06/05 00:27:32;;;;;;;;;;;21.00;99.90;;;;;;5021213;28;19934;-65
2022/06/05 00:30:05;;;;;;;;;;;20.90;99.90;;;;;;5016424;28;19926;-65
2022/06/05 00:32:37;;;;;;;;;;;20.90;99.90;;;;;;5021880;28;19925;-64
2022/06/05 00:35:06;;;;;;;;;;;20.90;99.90;;;;;;5019375;28;19929;-64
2022/06/05 00:37:37;;;;;;;;;;;20.80;99.90;;;;;;5004122;28;20361;-64
2022/06/05 00:40:15;;;;;;;;;;;20.80;99.90;;;;;;5023222;28;19934;-64
2022/06/05 00:42:42;;;;;;;;;;;20.70;99.90;;;;;;5003599;28;19980;-64
2022/06/05 00:45:10;;;;;;;;;;;20.70;99.90;;;;;;5023780;28;19933;-64
2022/06/05 00:47:39;;;;;;;;;;;20.60;99.90;;;;;;5009894;28;19984;-64
2022/06/05 00:50:09;;;;;;;;;;;20.60;99.90;;;;;;5023348;28;19969;-65
2022/06/05 00:52:37;;;;;;;;;;;20.50;99.90;;;;;;5025592;28;19926;-64
2022/06/05 00:55:05;;;;;;;;;;;20.50;99.90;;;;;;5002741;28;19929;-64
2022/06/05 00:57:33;;;;;;;;;;;20.60;99.90;;;;;;5003801;28;19961;-64
2022/06/05 01:00:00;;;;;;;;;;;20.60;99.90;;;;;;5019077;28;20401;-64
2022/06/05 01:02:29;;;;;;;;;;;20.60;99.90;;;;;;5018550;28;19983;-64
2022/06/05 01:04:56;;;;;;;;;;;20.60;99.90;;;;;;5024633;28;19953;-64
2022/06/05 01:07:24;;;;;;;;;;;20.60;99.90;;;;;;5005325;28;20447;-67
2022/06/05 01:09:52;;;;;;;;;;;20.60;99.90;;;;;;5010659;28;19992;-65
2022/06/05 01:12:25;;;;;;;;;;;20.60;99.90;;;;;;5016264;28;19935;-65
2022/06/05 01:14:57;;;;;;;;;;;20.60;99.90;;;;;;5003261;28;19925;-65
2022/06/05 01:17:26;;;;;;;;;;;20.50;99.90;;;;;;5025404;28;19934;-65
2022/06/05 01:19:56;;;;;;;;;;;20.50;99.90;;;;;;5025874;28;19929;-65
2022/06/05 01:22:40;;;;;;;;;;;20.50;99.90;;;;;;5025662;28;20056;-65
2022/06/05 01:25:13;;;;;;;;;;;20.50;99.90;;;;;;5018116;28;19930;-65
2022/06/05 01:27:44;;;;;;;;;;;20.50;99.90;;;;;;5006076;28;19948;-65
2022/06/05 01:30:13;;;;;;;;;;;20.50;99.90;;;;;;5027149;28;19981;-65
2022/06/05 01:32:43;;;;;;;;;;;20.40;99.90;;;;;;5003252;28;19926;-65
2022/06/05 01:35:14;;;;;;;;;;;20.40;99.90;;;;;;5007773;28;20448;-65
2022/06/05 01:37:45;;;;;;;;;;;20.40;99.90;;;;;;5026634;28;19932;-67
2022/06/05 01:40:14;;;;;;;;;;;20.40;99.90;;;;;;5021218;28;19925;-65
2022/06/05 01:42:45;;;;;;;;;;;20.40;99.90;;;;;;5023178;28;19945;-65
2022/06/05 01:45:15;;;;;;;;;;;20.40;99.90;;;;;;5007180;28;19930;-65
2022/06/05 01:47:45;;;;;;;;;;;20.40;99.90;;;;;;5021964;28;20416;-65
2022/06/05 01:50:15;;;;;;;;;;;20.50;99.90;;;;;;5011448;28;19932;-65
2022/06/05 01:52:45;;;;;;;;;;;20.40;99.90;;;;;;5024208;28;19925;-65
2022/06/05 01:55:13;;;;;;;;;;;20.40;99.90;;;;;;5027106;28;19933;-65
2022/06/05 01:57:40;;;;;;;;;;;20.40;99.90;;;;;;5002462;28;19930;-65
2022/06/05 02:00:12;;;;;;;;;;;20.40;99.90;;;;;;5026430;28;20408;-65
2022/06/05 02:02:43;;;;;;;;;;;20.40;99.90;;;;;;5004328;28;19978;-65
2022/06/05 02:05:11;;;;;;;;;;;20.40;99.90;;;;;;5015754;28;20041;-65
2022/06/05 02:07:40;;;;;;;;;;;20.30;99.90;;;;;;5023614;28;19930;-65
2022/06/05 02:10:10;;;;;;;;;;;20.30;99.90;;;;;;5026272;28;19941;-65
2022/06/05 02:12:37;;;;;;;;;;;20.30;99.90;;;;;;5023183;28;19925;-65
2022/06/05 02:15:05;;;;;;;;;;;20.30;99.90;;;;;;5025648;28;20404;-65
2022/06/05 02:17:33;;;;;;;;;;;20.20;99.90;;;;;;5001486;28;19929;-65
2022/06/05 02:20:01;;;;;;;;;;;20.20;99.90;;;;;;5024523;28;19933;-65
2022/06/05 02:22:30;;;;;;;;;;;20.10;99.90;;;;;;5021595;28;19933;-65
2022/06/05 02:24:56;;;;;;;;;;;20.10;99.90;;;;;;5027883;28;19979;-65
2022/06/05 02:27:24;;;;;;;;;;;20.10;99.90;;;;;;5026597;28;19933;-65
2022/06/05 02:29:51;;;;;;;;;;;20.10;99.90;;;;;;5027736;28;19941;-65
2022/06/05 02:32:25;;;;;;;;;;;20.00;99.90;;;;;;5026846;28;20024;-65
2022/06/05 02:35:01;;;;;;;;;;;19.90;99.90;;;;;;5020876;28;19929;-65
2022/06/05 02:37:37;;;;;;;;;;;19.90;99.90;;;;;;5009954;28;19951;-65
2022/06/05 02:40:09;;;;;;;;;;;19.90;99.90;;;;;;5000123;28;19949;-65
2022/06/05 02:42:37;;;;;;;;;;;19.80;99.90;;;;;;5022398;28;19936;-65
2022/06/05 02:45:09;;;;;;;;;;;19.80;99.90;;;;;;5025326;28;19926;-65
2022/06/05 02:47:39;;;;;;;;;;;19.70;99.90;;;;;;5025099;28;19933;-65
2022/06/05 02:50:11;;;;;;;;;;;19.70;99.90;;;;;;5025966;28;19930;-65
2022/06/05 02:52:38;;;;;;;;;;;19.70;99.90;;;;;;4999390;28;19972;-65
2022/06/05 02:55:06;;;;;;;;;;;19.60;99.90;;;;;;5005221;28;20016;-65
2022/06/05 02:57:33;;;;;;;;;;;19.60;99.90;;;;;;5027129;28;19969;-66
2022/06/05 03:00:00;;;;;;;;;;;19.60;99.90;;;;;;5018636;28;19926;-66
2022/06/05 03:05:12;;;;;;;;;;;19.60;99.90;;;;;;5005674;28;19992;-65
2022/06/05 03:07:39;;;;;;;;;;;19.50;99.90;;;;;;5023015;28;19925;-65
2022/06/05 03:10:06;;;;;;;;;;;19.50;99.90;;;;;;5026219;28;19987;-65
2022/06/05 03:12:33;;;;;;;;;;;19.50;99.90;;;;;;4997015;28;19948;-65
2022/06/05 03:15:01;;;;;;;;;;;19.50;99.90;;;;;;5024221;28;19925;-65
2022/06/05 03:17:28;;;;;;;;;;;19.50;99.90;;;;;;5021714;28;19932;-65
2022/06/05 03:19:55;;;;;;;;;;;19.50;99.90;;;;;;5024020;28;20286;-65
2022/06/05 03:22:24;;;;;;;;;;;19.40;99.90;;;;;;5020596;28;19932;-65
2022/06/05 03:24:51;;;;;;;;;;;19.50;99.90;;;;;;5026357;28;19932;-66
2022/06/05 03:27:18;;;;;;;;;;;19.40;99.90;;;;;;5024062;28;19937;-65
2022/06/05 03:29:45;;;;;;;;;;;19.40;99.90;;;;;;5003398;28;20346;-65
2022/06/05 03:32:12;;;;;;;;;;;19.50;99.90;;;;;;5026269;28;19925;-65
2022/06/05 03:34:39;;;;;;;;;;;19.40;99.90;;;;;;5023508;28;19981;-65
2022/06/05 03:37:06;;;;;;;;;;;19.40;99.90;;;;;;5023797;28;19975;-66
2022/06/05 03:39:34;;;;;;;;;;;19.40;99.90;;;;;;5021281;28;19997;-65
2022/06/05 03:42:01;;;;;;;;;;;19.40;99.90;;;;;;5023212;28;19929;-65
2022/06/05 03:44:28;;;;;;;;;;;19.30;99.90;;;;;;5021672;28;20357;-65
2022/06/05 03:46:54;;;;;;;;;;;19.20;99.90;;;;;;5022024;28;19942;-65
2022/06/05 03:49:21;;;;;;;;;;;19.20;99.90;;;;;;5009437;28;19929;-65
2022/06/05 03:51:48;;;;;;;;;;;19.20;99.90;;;;;;5024300;28;19930;-65
2022/06/05 03:54:15;;;;;;;;;;;19.20;99.90;;;;;;5001382;28;20336;-65
2022/06/05 03:56:43;;;;;;;;;;;19.20;99.90;;;;;;5024650;28;19926;-65
2022/06/05 03:59:10;;;;;;;;;;;19.20;99.90;;;;;;5026029;28;19941;-65
2022/06/05 04:01:37;;;;;;;;;;;19.20;99.90;;;;;;5023075;28;19932;-65
2022/06/05 04:04:04;;;;;;;;;;;19.10;99.90;;;;;;5014539;28;20294;-65
2022/06/05 04:06:31;;;;;;;;;;;19.10;99.90;;;;;;4998731;28;20390;-65
2022/06/05 04:08:59;;;;;;;;;;;19.10;99.90;;;;;;4996857;28;20378;-65
2022/06/05 04:11:27;;;;;;;;;;;19.10;99.90;;;;;;5023954;28;19929;-65
2022/06/05 04:13:56;;;;;;;;;;;19.10;99.90;;;;;;5025289;28;20294;-65
2022/06/05 04:16:24;;;;;;;;;;;19.20;99.90;;;;;;5025595;28;19948;-65
2022/06/05 04:18:52;;;;;;;;;;;19.10;99.90;;;;;;5025754;28;20208;-65
2022/06/05 04:21:19;;;;;;;;;;;19.20;99.90;;;;;;5023578;28;19925;-65
2022/06/05 04:23:46;;;;;;;;;;;19.20;99.90;;;;;;5026004;28;19933;-65
2022/06/05 04:26:14;;;;;;;;;;;19.20;99.90;;;;;;5002596;28;19933;-65
2022/06/05 04:28:41;;;;;;;;;;;19.30;99.90;;;;;;5021693;28;19925;-65
2022/06/05 04:31:17;;;;;;;;;;;19.20;99.90;;;;;;5009040;28;19930;-65
2022/06/05 04:33:44;;;;;;;;;;;19.30;99.90;;;;;;5019820;28;19941;-65
2022/06/05 04:36:11;;;;;;;;;;;19.20;99.90;;;;;;5008524;28;19929;-65
2022/06/05 04:38:38;;;;;;;;;;;19.20;99.90;;;;;;5022744;28;19925;-65
2022/06/05 04:41:05;;;;;;;;;;;19.30;99.90;;;;;;5029183;28;19929;-65
2022/06/05 04:43:31;;;;;;;;;;;19.20;99.90;;;;;;5020950;28;19925;-65
2022/06/05 04:45:58;;;;;;;;;;;19.20;99.90;;;;;;5027676;28;20345;-65
2022/06/05 04:48:26;;;;;;;;;;;19.20;99.90;;;;;;5019259;28;20348;-65
2022/06/05 04:50:53;;;;;;;;;;;19.20;99.90;;;;;;5017943;28;19926;-65
2022/06/05 04:53:20;;;;;;;;;;;19.20;99.90;;;;;;5022767;28;19929;-65
2022/06/05 04:55:47;;;;;;;;;;;19.30;99.90;;;;;;5010016;28;19930;-64
2022/06/05 04:58:13;;;;;;;;;;;19.30;99.90;;;;;;5006343;28;19930;-65
2022/06/05 05:00:40;;;;;;;;;;;19.30;99.90;;;;;;5013132;28;20408;-65
2022/06/05 05:03:07;;;;;;;;;;;19.30;99.90;;;;;;5023000;28;20376;-65
2022/06/05 05:05:35;;;;;;;;;;;19.30;99.90;;;;;;5016998;28;19930;-65
2022/06/05 05:08:02;;;;;;;;;;;19.30;99.90;;;;;;5026320;28;20309;-65
2022/06/05 05:10:29;;;;;;;;;;;19.30;99.90;;;;;;5025042;28;19926;-65
2022/06/05 05:12:56;;;;;;;;;;;19.30;99.90;;;;;;5027291;28;19945;-65
2022/06/05 05:15:23;;;;;;;;;;;19.40;99.90;;;;;;5027579;28;19933;-65
2022/06/05 05:17:50;;;;;;;;;;;19.40;99.90;;;;;;5026195;28;19945;-65
2022/06/05 05:20:16;;;;;;;;;;;19.40;99.90;;;;;;5021505;28;19925;-65
2022/06/05 05:22:45;;;;;;;;;;;19.40;99.90;;;;;;5024650;28;19991;-65
2022/06/05 05:25:12;;;;;;;;;;;19.40;99.90;;;;;;5002442;28;19925;-65
2022/06/05 05:27:39;;;;;;;;;;;19.50;99.90;;;;;;5025502;28;19937;-66
2022/06/05 05:30:07;;;;;;;;;;;19.50;99.90;;;;;;5016776;28;19926;-65
2022/06/05 05:32:34;;;;;;;;;;;19.60;99.90;;;;;;5025259;28;19933;-65
2022/06/05 05:35:01;;;;;;;;;;;19.60;99.90;;;;;;5022373;28;19925;-65
2022/06/05 05:37:27;;;;;;;;;;;19.60;99.90;;;;;;5020835;28;19926;-65
2022/06/05 05:42:39;;;;;;;;;;;19.70;99.90;;;;;;5017423;28;20020;-65
2022/06/05 05:45:07;;;;;;;;;;;19.70;99.90;;;;;;5003697;28;19925;-66
2022/06/05 05:47:34;;;;;;;;;;;19.70;99.90;;;;;;5027812;28;20348;-66
2022/06/05 05:50:02;;;;;;;;;;;19.70;99.90;;;;;;4998950;28;19929;-65
2022/06/05 05:52:29;;;;;;;;;;;19.70;99.90;;;;;;5021694;28;20360;-65
2022/06/05 05:54:57;;;;;;;;;;;19.70;99.90;;;;;;5002838;28;19929;-65
2022/06/05 05:57:24;;;;;;;;;;;19.80;99.90;;;;;;5027885;28;19932;-64
2022/06/05 05:59:51;;;;;;;;;;;19.70;99.90;;;;;;5025019;28;19932;-66
2022/06/05 06:02:21;;;;;;;;;;;19.70;99.90;;;;;;5014375;28;19925;-66
2022/06/05 06:04:48;;;;;;;;;;;19.80;99.90;;;;;;5011253;28;19926;-66
2022/06/05 06:07:16;;;;;;;;;;;19.80;99.90;;;;;;5007306;28;19933;-65
2022/06/05 06:09:43;;;;;;;;;;;19.80;99.90;;;;;;5027423;28;20313;-66
2022/06/05 06:12:12;;;;;;;;;;;19.90;99.90;;;;;;5008767;28;20348;-65
2022/06/05 06:14:40;;;;;;;;;;;19.90;99.90;;;;;;5022975;28;19937;-66
2022/06/05 06:17:07;;;;;;;;;;;19.90;99.90;;;;;;5014212;28;19940;-66
2022/06/05 06:19:34;;;;;;;;;;;20.00;99.90;;;;;;5014168;28;19932;-66
2022/06/05 06:22:01;;;;;;;;;;;19.90;99.90;;;;;;5025745;28;19925;-66
2022/06/05 06:24:28;;;;;;;;;;;20.00;99.90;;;;;;5022839;28;19925;-66
2022/06/05 06:26:55;;;;;;;;;;;20.00;99.90;;;;;;5008663;28;19973;-67
2022/06/05 06:29:23;;;;;;;;;;;19.90;99.90;;;;;;5011250;28;19925;-66
2022/06/05 06:31:50;;;;;;;;;;;19.90;99.90;;;;;;5019005;28;19925;-66
2022/06/05 06:34:17;;;;;;;;;;;20.00;99.90;;;;;;5020712;28;20387;-66
2022/06/05 06:36:43;;;;;;;;;;;20.00;99.90;;;;;;5010536;28;19932;-66
2022/06/05 06:39:10;;;;;;;;;;;20.00;99.90;;;;;;5009691;28;19926;-66
2022/06/05 06:41:37;;;;;;;;;;;20.00;99.90;;;;;;5016273;28;19972;-66
2022/06/05 06:44:04;;;;;;;;;;;20.10;99.90;;;;;;5020232;28;19991;-66
2022/06/05 06:46:33;;;;;;;;;;;20.20;99.90;;;;;;5020421;28;19926;-66
2022/06/05 06:49:00;;;;;;;;;;;20.20;99.90;;;;;;5009986;28;20381;-65
2022/06/05 06:51:27;;;;;;;;;;;20.20;99.90;;;;;;5025678;28;19925;-66
2022/06/05 06:53:54;;;;;;;;;;;20.30;99.90;;;;;;5022649;28;19929;-66
2022/06/05 06:56:21;;;;;;;;;;;20.30;99.90;;;;;;5021315;28;19932;-66
2022/06/05 06:58:48;;;;;;;;;;;20.40;99.90;;;;;;5019512;28;20452;-65
2022/06/05 07:01:15;;;;;;;;;;;20.40;99.90;;;;;;5002985;28;19948;-67
2022/06/05 07:03:43;;;;;;;;;;;20.50;99.90;;;;;;5023026;28;19925;-66
2022/06/05 07:06:11;;;;;;;;;;;20.60;99.90;;;;;;5022441;28;20341;-66
2022/06/05 07:08:38;;;;;;;;;;;20.70;99.90;;;;;;5006404;28;19925;-66
2022/06/05 07:11:05;;;;;;;;;;;20.80;99.90;;;;;;5016045;28;19988;-66
2022/06/05 07:13:32;;;;;;;;;;;20.90;99.90;;;;;;5018873;28;19925;-65
2022/06/05 07:15:59;;;;;;;;;;;21.00;99.90;;;;;;5009136;28;19937;-65
2022/06/05 07:18:26;;;;;;;;;;;21.10;99.90;;;;;;5010139;28;19925;-66
2022/06/05 07:20:54;;;;;;;;;;;21.20;99.90;;;;;;5025568;28;19929;-66
2022/06/05 07:23:21;;;;;;;;;;;21.20;99.90;;;;;;5012586;28;19988;-66
2022/06/05 07:25:49;;;;;;;;;;;21.20;99.90;;;;;;5027283;28;19929;-66
2022/06/05 07:28:16;;;;;;;;;;;21.30;99.90;;;;;;5024293;28;19980;-66
2022/06/05 07:30:46;;;;;;;;;;;21.30;99.90;;;;;;5021819;28;19925;-65
2022/06/05 07:33:13;;;;;;;;;;;21.20;99.90;;;;;;5010304;28;19929;-66
2022/06/05 07:35:40;;;;;;;;;;;21.20;99.90;;;;;;5013714;28;19930;-66
2022/06/05 07:38:08;;;;;;;;;;;21.20;99.90;;;;;;5025881;28;19929;-66
2022/06/05 07:40:38;;;;;;;;;;;21.20;99.90;;;;;;5014423;28;19930;-66
2022/06/05 07:43:04;;;;;;;;;;;21.30;99.90;;;;;;5011045;28;19931;-66
2022/06/05 07:45:31;;;;;;;;;;;21.40;99.90;;;;;;5015090;28;19933;-66
2022/06/05 07:47:58;;;;;;;;;;;21.40;99.90;;;;;;5007858;28;19925;-66
2022/06/05 07:50:25;;;;;;;;;;;21.50;99.90;;;;;;5014646;28;19932;-66
2022/06/05 07:55:37;;;;;;;;;;;21.50;99.90;;;;;;5006005;28;20353;-66
2022/06/05 07:58:04;;;;;;;;;;;21.40;99.90;;;;;;5025356;28;19925;-65
2022/06/05 08:00:31;;;;;;;;;;;21.50;99.90;;;;;;5012342;28;19930;-66
2022/06/05 08:02:58;;;;;;;;;;;21.50;99.90;;;;;;5006848;28;20416;-66
2022/06/05 08:05:25;;;;;;;;;;;21.50;99.90;;;;;;5020334;28;19926;-65
2022/06/05 08:07:51;;;;;;;;;;;21.40;99.90;;;;;;5021408;28;19962;-65
2022/06/05 08:10:18;;;;;;;;;;;21.40;99.90;;;;;;5007785;28;19940;-66
2022/06/05 08:12:48;;;;;;;;;;;21.40;99.90;;;;;;5019906;28;19933;-66
2022/06/05 08:15:16;;;;;;;;;;;21.10;99.90;;;;;;5011534;28;20329;-66
2022/06/05 08:17:43;;;;;;;;;;;20.90;99.90;;;;;;5022651;28;19926;-66
2022/06/05 08:20:11;;;;;;;;;;;20.80;99.90;;;;;;5026937;28;19933;-66
2022/06/05 08:22:38;;;;;;;;;;;20.80;99.90;;;;;;5029865;28;20352;-66
2022/06/05 08:25:05;;;;;;;;;;;20.60;99.90;;;;;;5025229;28;19926;-66
2022/06/05 08:27:32;;;;;;;;;;;20.50;99.90;;;;;;5011117;28;19925;-65
2022/06/05 08:30:00;;;;;;;;;;;20.60;99.90;;;;;;5028014;28;19929;-65
2022/06/05 08:32:28;;;;;;;;;;;20.50;99.90;;;;;;5026049;28;19961;-65
2022/06/05 08:34:55;;;;;;;;;;;20.40;99.90;;;;;;5019680;28;20372;-65
2022/06/05 08:43:12;;;;;;;;;;;20.20;99.90;;;;;;5010191;28;19925;-66
2022/06/05 08:45:45;;;;;;;;;;;20.20;99.90;;;;;;5012275;28;19980;-65
2022/06/05 08:48:14;;;;;;;;;;;20.00;99.90;;;;;;5024819;28;19926;-66
2022/06/05 08:50:45;;;;;;;;;;;20.00;99.90;;;;;;5016846;28;20344;-65
2022/06/05 08:53:15;;;;;;;;;;;20.00;99.90;;;;;;5026131;28;19926;-66
2022/06/05 08:55:44;;;;;;;;;;;19.90;99.90;;;;;;5012524;28;19925;-65
2022/06/05 08:58:15;;;;;;;;;;;19.90;99.90;;;;;;5007097;28;19929;-65
2022/06/05 09:00:47;;;;;;;;;;;19.90;99.90;;;;;;5025237;28;19965;-66
2022/06/05 09:03:19;;;;;;;;;;;20.00;99.90;;;;;;5025209;28;19926;-65
2022/06/05 09:05:48;;;;;;;;;;;20.10;99.90;;;;;;5012004;28;19926;-65
2022/06/05 09:08:16;;;;;;;;;;;19.90;99.90;;;;;;5022662;28;20296;-64
2022/06/05 09:10:45;;;;;;;;;;;20.00;99.90;;;;;;5024724;28;19925;-64
2022/06/05 09:13:14;;;;;;;;;;;20.00;99.90;;;;;;5009018;28;19926;-65
2022/06/05 09:15:44;;;;;;;;;;;19.90;99.90;;;;;;5007379;28;19953;-65
2022/06/05 09:18:15;;;;;;;;;;;19.80;99.90;;;;;;5021413;28;19932;-65
2022/06/05 09:20:45;;;;;;;;;;;19.80;99.90;;;;;;5022333;28;19932;-65
2022/06/05 09:23:16;;;;;;;;;;;19.90;99.90;;;;;;5007507;28;19926;-65
2022/06/05 09:25:47;;;;;;;;;;;20.00;99.90;;;;;;5027722;28;19925;-65
2022/06/05 09:28:25;;;;;;;;;;;19.90;99.90;;;;;;5007385;28;20012;-66
2022/06/05 09:30:54;;;;;;;;;;;19.90;99.90;;;;;;5009460;28;19969;-67
2022/06/05 09:33:24;;;;;;;;;;;19.90;99.90;;;;;;5009620;28;19925;-73
2022/06/05 09:35:53;;;;;;;;;;;20.00;99.90;;;;;;5028098;28;19932;-65
2022/06/05 09:38:22;;;;;;;;;;;20.10;99.90;;;;;;5026303;28;19926;-66
2022/06/05 09:40:54;;;;;;;;;;;20.30;99.90;;;;;;5027477;28;19926;-68
2022/06/05 09:43:27;;;;;;;;;;;20.40;99.90;;;;;;5019126;28;19933;-66
2022/06/05 09:46:08;;;;;;;;;;;20.50;99.90;;;;;;5028218;28;19925;-67
2022/06/05 09:48:45;;;;;;;;;;;20.70;99.90;;;;;;5006399;28;20163;-66
2022/06/05 09:51:15;;;;;;;;;;;20.80;99.90;;;;;;5006882;28;19929;-65
2022/06/05 09:53:43;;;;;;;;;;;20.80;99.90;;;;;;5010941;28;19926;-67
2022/06/05 09:56:17;;;;;;;;;;;20.80;99.90;;;;;;5022121;28;19929;-66
2022/06/05 09:58:48;;;;;;;;;;;20.70;99.90;;;;;;5024200;28;19938;-67
2022/06/05 10:01:23;;;;;;;;;;;20.70;99.90;;;;;;5009208;28;19922;-66
2022/06/05 10:03:51;;;;;;;;;;;20.70;99.90;;;;;;5025363;28;19965;-66
2022/06/05 10:06:22;;;;;;;;;;;20.60;99.90;;;;;;5016072;28;19933;-67
2022/06/05 10:08:51;;;;;;;;;;;20.70;99.90;;;;;;5009617;28;19976;-66
2022/06/05 10:11:21;;;;;;;;;;;20.80;99.90;;;;;;5017031;28;20048;-66
2022/06/05 10:13:50;;;;;;;;;;;20.70;99.90;;;;;;5008502;28;19925;-67
2022/06/05 10:16:23;;;;;;;;;;;20.90;99.90;;;;;;5008717;28;20294;-66
2022/06/05 10:18:52;;;;;;;;;;;21.20;99.90;;;;;;5024919;28;19925;-65
2022/06/05 10:21:22;;;;;;;;;;;21.20;99.90;;;;;;5017057;28;19930;-66
2022/06/05 10:23:51;;;;;;;;;;;21.40;99.90;;;;;;5026159;28;19980;-66
2022/06/05 10:26:20;;;;;;;;;;;21.50;99.90;;;;;;5017583;28;20313;-66
2022/06/05 10:28:48;;;;;;;;;;;21.30;99.90;;;;;;5027429;28;19992;-66
2022/06/05 10:31:23;;;;;;;;;;;21.40;99.90;;;;;;5008972;28;19977;-66
2022/06/05 10:33:52;;;;;;;;;;;21.50;99.90;;;;;;5026221;28;19932;-66
2022/06/05 10:36:22;;;;;;;;;;;21.50;99.90;;;;;;5007298;28;19988;-66
2022/06/05 10:38:55;;;;;;;;;;;21.40;99.90;;;;;;5018183;28;19929;-66
2022/06/05 10:41:25;;;;;;;;;;;21.40;99.90;;;;;;5008744;28;19980;-66
2022/06/05 10:44:05;;;;;;;;;;;21.60;99.90;;;;;;5026203;28;20422;-66
2022/06/05 10:46:32;;;;;;;;;;;21.80;99.90;;;;;;5010326;28;19929;-66
2022/06/05 10:49:02;;;;;;;;;;;22.00;99.90;;;;;;5024667;28;19925;-66
2022/06/05 10:51:33;;;;;;;;;;;22.20;99.90;;;;;;5008720;28;19929;-66
2022/06/05 10:54:06;;;;;;;;;;;22.40;99.90;;;;;;5024219;28;20416;-66
2022/06/05 10:56:36;;;;;;;;;;;22.80;99.90;;;;;;5020111;28;20005;-67
2022/06/05 10:59:07;;;;;;;;;;;23.00;99.90;;;;;;5005140;28;19934;-66
2022/06/05 11:01:49;;;;;;;;;;;23.10;99.90;;;;;;5021816;28;19926;-67
2022/06/05 11:04:19;;;;;;;;;;;23.20;99.90;;;;;;5019313;28;19979;-66
2022/06/05 11:06:50;;;;;;;;;;;23.00;99.90;;;;;;5020514;28;19926;-66
2022/06/05 11:09:26;;;;;;;;;;;22.90;99.90;;;;;;5005971;28;19957;-67
2022/06/05 11:14:49;;;;;;;;;;;22.90;99.90;;;;;;5011989;28;20371;-66
2022/06/05 11:17:23;;;;;;;;;;;22.60;99.90;;;;;;5026479;28;20404;-66
2022/06/05 11:19:53;;;;;;;;;;;22.60;99.90;;;;;;5018252;28;19933;-65
2022/06/05 11:22:22;;;;;;;;;;;22.90;99.90;;;;;;5003225;28;19952;-66
2022/06/05 11:24:50;;;;;;;;;;;23.50;99.90;;;;;;5002984;28;19925;-66
2022/06/05 11:27:25;;;;;;;;;;;24.20;99.90;;;;;;5010609;28;20390;-66
2022/06/05 11:29:53;;;;;;;;;;;24.30;99.90;;;;;;5006659;28;19926;-66
2022/06/05 11:32:24;;;;;;;;;;;24.80;99.90;;;;;;5010953;28;19932;-65
2022/06/05 11:34:53;;;;;;;;;;;24.90;99.90;;;;;;5009328;28;19926;-66
2022/06/05 11:37:29;;;;;;;;;;;25.00;99.90;;;;;;5021500;28;19925;-66
2022/06/05 11:40:00;;;;;;;;;;;24.90;99.90;;;;;;5026311;28;19929;-66
2022/06/05 11:42:29;;;;;;;;;;;25.50;99.90;;;;;;5017159;28;19932;-65
2022/06/05 11:45:00;;;;;;;;;;;25.80;99.90;;;;;;5022314;28;19934;-67
2022/06/05 11:47:31;;;;;;;;;;;25.80;99.90;;;;;;5008974;28;19926;-66
2022/06/05 11:50:02;;;;;;;;;;;25.80;99.90;;;;;;5020262;28;20012;-66
2022/06/05 11:52:36;;;;;;;;;;;25.80;99.90;;;;;;5023710;28;19926;-66
2022/06/05 11:55:05;;;;;;;;;;;25.50;99.90;;;;;;5007275;28;19929;-66
2022/06/05 11:57:37;;;;;;;;;;;25.60;99.90;;;;;;5011315;28;19973;-67
2022/06/05 12:00:06;;;;;;;;;;;26.00;99.90;;;;;;5012096;28;20355;-67
2022/06/05 12:02:39;;;;;;;;;;;26.10;99.90;;;;;;5014055;28;19929;-68
2022/06/05 12:05:10;;;;;;;;;;;25.70;99.90;;;;;;5023635;28;19929;-68
2022/06/05 12:07:38;;;;;;;;;;;25.50;99.90;;;;;;5003038;28;20016;-66
2022/06/05 12:10:07;;;;;;;;;;;25.10;99.90;;;;;;5017836;28;19936;-66
2022/06/05 12:12:38;;;;;;;;;;;24.80;99.90;;;;;;5026226;28;19930;-66
2022/06/05 12:15:09;;;;;;;;;;;24.60;99.90;;;;;;5009424;28;19955;-66
2022/06/05 12:17:41;;;;;;;;;;;24.60;99.90;;;;;;5024636;28;20356;-66
2022/06/05 12:20:11;;;;;;;;;;;24.70;99.90;;;;;;5008698;28;20393;-66
2022/06/05 12:22:43;;;;;;;;;;;24.70;99.90;;;;;;5019906;28;19926;-65
2022/06/05 12:25:18;;;;;;;;;;;24.80;99.90;;;;;;5008613;28;19937;-66
2022/06/05 12:27:58;;;;;;;;;;;25.00;99.90;;;;;;4999483;28;19925;-66
2022/06/05 12:30:28;;;;;;;;;;;25.00;99.90;;;;;;4999671;28;20040;-65
2022/06/05 12:32:57;;;;;;;;;;;24.90;99.90;;;;;;5001543;28;19926;-66
2022/06/05 12:35:26;;;;;;;;;;;24.70;99.90;;;;;;5020558;28;19934;-65
2022/06/05 12:38:01;;;;;;;;;;;24.50;99.90;;;;;;5024487;28;19940;-65
2022/06/05 12:40:32;;;;;;;;;;;24.10;99.90;;;;;;5024694;28;19934;-65
2022/06/05 12:43:03;;;;;;;;;;;23.80;99.90;;;;;;5008294;28;19930;-66
2022/06/05 12:45:30;;;;;;;;;;;23.60;99.90;;;;;;5024243;28;19937;-65
2022/06/05 12:48:07;;;;;;;;;;;23.50;99.90;;;;;;5024018;28;20304;-65
2022/06/05 12:50:37;;;;;;;;;;;23.80;99.90;;;;;;5020094;28;19925;-65
2022/06/05 12:53:08;;;;;;;;;;;24.10;99.90;;;;;;5009283;28;20454;-65
2022/06/05 12:55:36;;;;;;;;;;;24.10;99.90;;;;;;5019273;28;19933;-65
2022/06/05 12:58:07;;;;;;;;;;;23.80;99.90;;;;;;5024863;28;19930;-66
2022/06/05 13:00:37;;;;;;;;;;;23.40;99.90;;;;;;5005298;28;20015;-64
2022/06/05 13:03:10;;;;;;;;;;;23.20;99.90;;;;;;5020969;28;19976;-65
2022/06/05 13:05:41;;;;;;;;;;;22.90;99.90;;;;;;5011580;28;19932;-65
2022/06/05 13:08:12;;;;;;;;;;;22.60;99.90;;;;;;5011677;28;19932;-66
2022/06/05 13:10:40;;;;;;;;;;;22.20;99.90;;;;;;5014023;28;19926;-65
2022/06/05 13:13:15;;;;;;;;;;;22.10;99.90;;;;;;5025750;28;20341;-65
2022/06/05 13:15:45;;;;;;;;;;;22.10;99.90;;;;;;5011119;28;19975;-64
2022/06/05 13:18:18;;;;;;;;;;;22.10;99.90;;;;;;5029056;28;19933;-64
2022/06/05 13:20:52;;;;;;;;;;;22.20;99.90;;;;;;5022568;28;19961;-64
2022/06/05 13:23:24;;;;;;;;;;;22.30;99.90;;;;;;5026644;28;19925;-64
2022/06/05 13:25:55;;;;;;;;;;;22.30;99.90;;;;;;5028529;28;19925;-64
2022/06/05 13:28:28;;;;;;;;;;;22.20;99.90;;;;;;5024348;28;19930;-64
2022/06/05 13:30:56;;;;;;;;;;;22.10;99.90;;;;;;5021284;28;20427;-64
2022/06/05 13:33:27;;;;;;;;;;;22.10;99.90;;;;;;5026469;28;20005;-64
2022/06/05 13:35:58;;;;;;;;;;;21.90;99.90;;;;;;5022984;28;19929;-64
2022/06/05 13:38:28;;;;;;;;;;;21.80;99.90;;;;;;5023164;28;19933;-64
2022/06/05 13:40:59;;;;;;;;;;;21.60;99.90;;;;;;5004278;28;19932;-64
2022/06/05 13:43:28;;;;;;;;;;;21.30;99.90;;;;;;5027868;28;19930;-65
2022/06/05 13:46:04;;;;;;;;;;;20.50;99.90;;;;;;5019791;28;19965;-66
2022/06/05 13:48:34;;;;;;;;;;;19.60;99.90;;;;;;5028327;28;19926;-66
2022/06/05 13:51:05;;;;;;;;;;;18.70;99.90;;;;;;5007684;28;19961;-67
2022/06/05 13:53:37;;;;;;;;;;;18.30;99.90;;;;;;5025435;28;20239;-66
2022/06/05 13:56:06;;;;;;;;;;;18.20;99.90;;;;;;5008417;28;19932;-66
2022/06/05 13:58:44;;;;;;;;;;;18.10;99.90;;;;;;5019425;28;19940;-66
2022/06/05 14:01:11;;;;;;;;;;;18.10;99.90;;;;;;5010778;28;20013;-65
2022/06/05 14:03:40;;;;;;;;;;;18.40;99.90;;;;;;5020032;28;20372;-64
2022/06/05 14:06:14;;;;;;;;;;;18.40;99.90;;;;;;5004936;28;19979;-65
2022/06/05 14:08:49;;;;;;;;;;;18.40;99.90;;;;;;5023659;28;19997;-65
2022/06/05 14:11:16;;;;;;;;;;;;;;;;;;5019728;28;19925;-66
2022/06/05 14:13:44;;;;;;;;;;;;;;;;;;5010434;28;19933;-66
2022/06/05 14:16:11;;;;;;;;;;;;;;;;;;5013502;28;20464;-65
2022/06/05 14:18:40;;;;;;;;;;;;;;;;;;5011055;28;19925;-65
2022/06/05 14:21:07;;;;;;;;;;;;;;;;;;5010554;28;20385;-65
2022/06/05 14:23:34;;;;;;;;;;;;;;;;;;5011951;28;19929;-64
2022/06/05 14:26:04;;;;;;;;;;;18.70;99.90;;;;;;5010349;28;19929;-65
2022/06/05 14:28:36;;;;;;;;;;;18.80;99.90;;;;;;5022980;28;19926;-66
2022/06/05 14:31:08;;;;;;;;;;;18.80;99.90;;;;;;5006809;28;20020;-65
2022/06/05 14:33:36;;;;;;;;;;;19.00;99.90;;;;;;5019168;28;19933;-65
2022/06/05 14:36:04;;;;;;;;;;;19.20;99.90;;;;;;5009249;28;19936;-65
2022/06/05 14:38:32;;;;;;;;;;;19.40;99.90;;;;;;5010816;28;19929;-65
2022/06/05 14:41:04;;;;;;;;;;;19.60;99.90;;;;;;5008400;28;20459;-64
2022/06/05 14:43:35;;;;;;;;;;;20.00;99.90;;;;;;5019678;28;19925;-65
2022/06/05 14:46:13;;;;;;;;;;;20.40;99.90;;;;;;5005689;28;19926;-66